createdAt,value
2023-11-23T00:09:27.993Z,1013.3
2023-11-23T00:19:27.950Z,1013.1
2023-11-23T00:29:27.934Z,1013
2023-11-23T00:49:27.944Z,1012.9
2023-11-23T00:59:27.911Z,1012.8
2023-11-23T01:09:27.826Z,1012.6
2023-11-23T01:19:27.807Z,1012.5
2023-11-23T01:29:27.771Z,1012.5
2023-11-23T01:39:27.743Z,1012.5
2023-11-23T01:49:27.821Z,1012.5
2023-11-23T01:59:27.698Z,1012.5
2023-11-23T02:09:27.732Z,1012.5
2023-11-23T02:19:27.637Z,1012.5
2023-11-23T02:29:27.612Z,1012.4
2023-11-23T02:39:27.585Z,1012.4
2023-11-23T02:49:27.548Z,1012.4
2023-11-23T02:59:27.575Z,1012.2
2023-11-23T03:09:27.531Z,1012.2
2023-11-23T03:19:27.496Z,1012.2
2023-11-23T03:29:27.445Z,1012.1
2023-11-23T03:39:27.430Z,1012
2023-11-23T03:49:27.386Z,1011.9
2023-11-23T03:59:27.391Z,1011.7
2023-11-23T04:09:27.353Z,1011.6
2023-11-23T04:19:27.327Z,1011.6
2023-11-23T04:29:27.297Z,1011.5
2023-11-23T04:39:27.269Z,1011.5
2023-11-23T04:49:27.251Z,1011.5
2023-11-23T04:59:27.219Z,1011.5
2023-11-23T05:09:27.196Z,1011.3
2023-11-23T05:19:27.159Z,1011.2
2023-11-23T05:29:27.153Z,1011.3
2023-11-23T05:39:27.184Z,1011.2
2023-11-23T05:49:27.074Z,1011.3
2023-11-23T05:59:27.051Z,1011.3
2023-11-23T06:09:27.032Z,1011.3
2023-11-23T06:19:26.998Z,1011.3
2023-11-23T06:29:26.980Z,1011.2
2023-11-23T06:39:27.147Z,1011.2
2023-11-23T06:49:26.986Z,1011
2023-11-23T06:59:27.186Z,1011
2023-11-23T07:09:27.213Z,1010.8
2023-11-23T07:19:26.839Z,1010.8
2023-11-23T07:29:27.093Z,1010.9
2023-11-23T07:39:26.792Z,1010.9
2023-11-23T07:49:27.074Z,1010.8
2023-11-23T07:59:26.731Z,1010.8
2023-11-23T08:09:26.937Z,1010.7
2023-11-23T08:19:26.915Z,1010.6
2023-11-23T08:29:26.798Z,1010.6
2023-11-23T08:39:26.938Z,1010.5
2023-11-23T08:49:26.916Z,1010.5
2023-11-23T08:59:26.838Z,1010.5
2023-11-23T09:09:26.795Z,1010.4
2023-11-23T09:19:26.861Z,1010.4
2023-11-23T09:29:26.565Z,1010.4
2023-11-23T09:39:26.738Z,1010.4
2023-11-23T09:49:26.650Z,1010.4
2023-11-23T09:59:26.464Z,1010.2
2023-11-23T10:09:26.387Z,1010.1
2023-11-23T10:19:26.584Z,1009.9
2023-11-23T10:29:26.392Z,1009.6
2023-11-23T10:39:26.675Z,1009.5
2023-11-23T10:49:26.556Z,1009.5
2023-11-23T10:59:26.511Z,1009.4
2023-11-23T11:09:26.271Z,1009.4
2023-11-23T11:19:26.440Z,1009.1
2023-11-23T11:29:26.440Z,1008.9
2023-11-23T11:39:26.399Z,1008.8
2023-11-23T11:49:26.330Z,1008.7
2023-11-23T11:59:26.308Z,1008.5
2023-11-23T12:09:26.295Z,1008.4
2023-11-23T12:19:26.117Z,1008.2
2023-11-23T12:29:26.250Z,1008
2023-11-23T12:39:26.343Z,1007.9
2023-11-23T12:49:25.898Z,1007.7
2023-11-23T12:59:26.173Z,1007.6
2023-11-23T13:09:26.134Z,1007.4
2023-11-23T13:19:26.112Z,1007.3
2023-11-23T13:29:26.085Z,1007.1
2023-11-23T13:39:25.977Z,1006.9
2023-11-23T13:49:26.044Z,1006.7
2023-11-23T13:59:26.053Z,1006.5
2023-11-23T14:09:25.656Z,1006.4
2023-11-23T14:19:25.649Z,1006.3
2023-11-23T14:29:25.585Z,1006.1
2023-11-23T14:39:25.578Z,1005.9
2023-11-23T14:49:25.542Z,1005.8
2023-11-23T14:59:25.525Z,1005.8
2023-11-23T15:09:25.474Z,1005.7
2023-11-23T15:19:25.437Z,1005.6
2023-11-23T15:29:25.428Z,1005.5
2023-11-23T15:39:25.391Z,1005.3
2023-11-23T15:49:25.363Z,1005.3
2023-11-23T15:59:25.441Z,1005.1
2023-11-23T16:09:25.334Z,1005
2023-11-23T16:19:25.273Z,1004.9
2023-11-23T16:29:25.249Z,1004.9
2023-11-23T16:39:25.224Z,1004.6
2023-11-23T16:49:25.188Z,1004.5
2023-11-23T16:59:25.178Z,1004.5
2023-11-23T17:09:25.125Z,1004.7
2023-11-23T17:19:25.085Z,1004.6
2023-11-23T17:29:25.063Z,1004.5
2023-11-23T17:39:25.028Z,1004.4
2023-11-23T17:49:25.001Z,1004.2
2023-11-23T17:59:25.083Z,1004
2023-11-23T18:09:24.954Z,1003.8
2023-11-23T18:19:24.900Z,1003.7
2023-11-23T18:29:24.887Z,1003.6
2023-11-23T18:39:24.846Z,1003.6
2023-11-23T18:49:24.827Z,1003.5
2023-11-23T18:59:24.807Z,1003.5
2023-11-23T19:09:24.762Z,1003.3
2023-11-23T19:19:24.741Z,1003.1
2023-11-23T19:29:24.697Z,1002.9
2023-11-23T19:39:24.836Z,1002.8
2023-11-23T19:49:24.682Z,1002.6
2023-11-23T19:59:24.615Z,1002.5
2023-11-23T20:09:24.583Z,1002.3
2023-11-23T20:29:24.542Z,1002.2
2023-11-23T20:39:24.499Z,1002.1
2023-11-23T20:49:24.459Z,1001.9
2023-11-23T20:59:24.744Z,1001.9
2023-11-23T21:09:24.406Z,1001.7
2023-11-23T21:19:24.378Z,1001.5
2023-11-23T21:29:24.400Z,1001.3
2023-11-23T21:39:24.403Z,1001
2023-11-23T21:49:24.312Z,1000.8
2023-11-23T21:59:24.261Z,1000.7
2023-11-23T22:09:24.245Z,1000.5
2023-11-23T22:19:24.218Z,1000.5
2023-11-23T22:29:24.215Z,1000.4
2023-11-23T22:39:24.161Z,1000.2
2023-11-23T22:49:24.125Z,1000.1
2023-11-23T22:59:24.113Z,999.9
2023-11-23T23:09:24.081Z,999.6
2023-11-23T23:19:24.240Z,999.6
2023-11-23T23:29:24.019Z,1000
2023-11-23T23:39:23.988Z,1000.1
2023-11-23T23:49:23.961Z,1000.1
2023-11-23T23:59:24.028Z,1000
